createdAt,value
2022-08-28T00:00:19.133Z,98691.50
2022-08-28T00:02:45.390Z,98688.44
2022-08-28T00:05:11.670Z,98688.22
2022-08-28T00:07:37.889Z,98683.88
2022-08-28T00:10:04.088Z,98695.81
2022-08-28T00:12:30.312Z,98702.06
2022-08-28T00:14:56.551Z,98700.19
2022-08-28T00:17:22.911Z,98694.09
2022-08-28T00:19:49.328Z,98696.19
2022-08-28T00:22:15.578Z,98688.75
2022-08-28T00:24:42.118Z,98690.63
2022-08-28T00:27:08.534Z,98688.59
2022-08-28T00:29:34.814Z,98689.13
2022-08-28T00:32:01.072Z,98677.22
2022-08-28T00:34:29.652Z,98685.22
2022-08-28T00:36:59.457Z,98684.47
2022-08-28T00:39:27.952Z,98686.91
2022-08-28T00:41:57.833Z,98676.19
2022-08-28T00:44:24.267Z,98685.25
2022-08-28T00:46:50.553Z,98688.16
2022-08-28T00:49:16.766Z,98690.63
2022-08-28T00:51:43.007Z,98688.53
2022-08-28T00:54:09.275Z,98696.19
2022-08-28T00:56:35.462Z,98692.28
2022-08-28T00:59:01.605Z,98698.47
2022-08-28T01:01:27.785Z,98694.16
2022-08-28T01:03:53.954Z,98694.34
2022-08-28T01:06:20.095Z,98696.03
2022-08-28T01:08:46.266Z,98700.59
2022-08-28T01:11:16.879Z,98695.22
2022-08-28T01:13:43.007Z,98704.50
2022-08-28T01:16:09.221Z,98701.38
2022-08-28T01:18:35.437Z,98696.66
2022-08-28T01:21:01.633Z,98702.25
2022-08-28T01:23:27.775Z,98709.06
2022-08-28T01:25:53.924Z,98704.72
2022-08-28T01:28:20.061Z,98706.56
2022-08-28T01:30:46.256Z,98705.97
2022-08-28T01:33:12.512Z,98706.16
2022-08-28T01:35:38.655Z,98708.44
2022-08-28T01:38:04.794Z,98709.28
2022-08-28T01:40:31.070Z,98712.56
2022-08-28T01:42:57.228Z,98710.72
2022-08-28T01:45:23.385Z,98710.53
2022-08-28T01:47:49.594Z,98711.56
2022-08-28T01:50:17.596Z,98714.25
2022-08-28T01:52:43.731Z,98713.78
2022-08-28T01:55:09.901Z,98713.63
2022-08-28T01:57:36.044Z,98717.53
2022-08-28T02:00:02.170Z,98718.38
2022-08-28T02:02:28.337Z,98719.19
2022-08-28T02:04:54.517Z,98723.31
2022-08-28T02:07:20.659Z,98715.28
2022-08-28T02:09:46.827Z,98722.09
2022-08-28T02:12:12.972Z,98714.44
2022-08-28T02:14:39.114Z,98712.97
2022-08-28T02:17:05.265Z,98718.78
2022-08-28T02:19:31.414Z,98721.44
2022-08-28T02:21:57.547Z,98723.72
2022-08-28T02:24:23.704Z,98720.06
2022-08-28T02:26:49.846Z,98722.09
2022-08-28T02:29:15.976Z,98716.31
2022-08-28T02:31:42.866Z,98721.69
2022-08-28T02:34:08.998Z,98726.03
2022-08-28T02:36:35.146Z,98723.75
2022-08-28T02:39:01.317Z,98730.75
2022-08-28T02:41:27.454Z,98728.28
2022-08-28T02:43:53.592Z,98734.66
2022-08-28T02:46:19.764Z,98728.50
2022-08-28T02:48:45.977Z,98733.47
2022-08-28T02:51:12.108Z,98735.09
2022-08-28T02:53:38.266Z,98738.78
2022-08-28T02:56:04.392Z,98739.41
2022-08-28T02:58:30.530Z,98744.38
2022-08-28T03:00:56.765Z,98739.44
2022-08-28T03:03:22.992Z,98748.88
2022-08-28T03:05:49.128Z,98744.16
2022-08-28T03:08:15.275Z,98749.47
2022-08-28T03:10:41.440Z,98752.56
2022-08-28T03:13:07.579Z,98748.28
2022-08-28T03:15:33.754Z,98745.56
2022-08-28T03:17:59.913Z,98754.44
2022-08-28T03:20:26.396Z,98754.22
2022-08-28T03:22:52.554Z,98750.69
2022-08-28T03:25:18.681Z,98757.09
2022-08-28T03:27:44.821Z,98748.03
2022-08-28T03:30:12.890Z,98751.94
2022-08-28T03:32:39.014Z,98748.47
2022-08-28T03:35:05.180Z,98741.25
2022-08-28T03:37:31.609Z,98747.66
2022-08-28T03:39:57.786Z,98745.19
2022-08-28T03:42:23.946Z,98745.78
2022-08-28T03:44:50.096Z,98753.38
2022-08-28T03:47:16.217Z,98756.25
2022-08-28T03:49:42.350Z,98750.25
2022-08-28T03:52:08.510Z,98750.44
2022-08-28T03:54:34.653Z,98755.84
2022-08-28T03:57:00.792Z,98750.94
2022-08-28T03:59:31.744Z,98758.72
2022-08-28T04:01:59.862Z,98758.13
2022-08-28T04:04:26.005Z,98754.41
2022-08-28T04:06:52.157Z,98762.66
2022-08-28T04:09:18.342Z,98752.78
2022-08-28T04:11:44.491Z,98751.69
2022-08-28T04:14:10.645Z,98757.84
2022-08-28T04:16:36.850Z,98756.63
2022-08-28T04:19:03.013Z,98763.63
2022-08-28T04:21:29.237Z,98770.09
2022-08-28T04:23:55.369Z,98768.88
2022-08-28T04:26:21.491Z,98756.47
2022-08-28T04:28:47.636Z,98756.00
2022-08-28T04:31:13.912Z,98755.19
2022-08-28T04:33:40.082Z,98762.56
2022-08-28T04:36:06.576Z,98759.50
2022-08-28T04:38:32.725Z,98760.75
2022-08-28T04:40:58.946Z,98761.63
2022-08-28T04:43:25.504Z,98752.31
2022-08-28T04:45:51.696Z,98755.63
2022-08-28T04:48:17.993Z,98751.69
2022-08-28T04:50:44.347Z,98746.28
2022-08-28T04:53:10.494Z,98747.97
2022-08-28T04:55:53.702Z,98757.19
2022-08-28T04:58:23.657Z,98753.63
2022-08-28T05:00:50.371Z,98756.72
2022-08-28T05:03:16.549Z,98755.34
2022-08-28T05:05:42.711Z,98759.88
2022-08-28T05:08:08.853Z,98759.25
2022-08-28T05:10:35.002Z,98768.50
2022-08-28T05:13:01.158Z,98769.13
2022-08-28T05:15:27.315Z,98770.41
2022-08-28T05:17:53.462Z,98771.44
2022-08-28T05:20:19.616Z,98770.81
2022-08-28T05:22:45.761Z,98770.00
2022-08-28T05:25:11.891Z,98771.88
2022-08-28T05:27:38.054Z,98780.94
2022-08-28T05:30:04.192Z,98777.88
2022-08-28T05:32:30.321Z,98787.53
2022-08-28T05:34:56.467Z,98785.25
2022-08-28T05:37:22.624Z,98786.06
2022-08-28T05:39:48.745Z,98790.53
2022-08-28T05:42:14.895Z,98799.13
2022-08-28T05:44:41.033Z,98788.84
2022-08-28T05:47:07.162Z,98788.38
2022-08-28T05:49:33.313Z,98800.59
2022-08-28T05:51:59.447Z,98802.47
2022-08-28T05:54:25.578Z,98802.09
2022-08-28T05:56:51.767Z,98808.41
2022-08-28T06:02:04.542Z,98808.22
2022-08-28T06:04:30.849Z,98810.06
2022-08-28T06:06:57.005Z,98824.88
2022-08-28T06:09:28.187Z,98823.06
2022-08-28T06:11:55.432Z,98830.56
2022-08-28T06:14:23.322Z,98833.34
2022-08-28T06:16:51.108Z,98824.34
2022-08-28T06:19:17.259Z,98826.53
2022-08-28T06:21:43.415Z,98833.81
2022-08-28T06:24:09.573Z,98831.00
2022-08-28T06:26:35.701Z,98828.19
2022-08-28T06:29:01.852Z,98839.09
2022-08-28T06:31:32.463Z,98834.31
2022-08-28T06:33:59.448Z,98843.59
2022-08-28T06:36:25.580Z,98838.91
2022-08-28T06:38:51.724Z,98844.44
2022-08-28T06:41:17.852Z,98847.75
2022-08-28T06:43:44.002Z,98838.28
2022-08-28T06:46:10.230Z,98848.53
2022-08-28T06:48:36.432Z,98842.56
2022-08-28T06:51:02.596Z,98848.91
2022-08-28T06:53:28.740Z,98851.31
2022-08-28T06:55:54.869Z,98851.75
2022-08-28T06:58:21.013Z,98847.53
2022-08-28T07:00:47.166Z,98843.88
2022-08-28T07:03:13.314Z,98846.63
2022-08-28T07:05:39.468Z,98852.41
2022-08-28T07:08:05.705Z,98852.28
2022-08-28T07:10:31.906Z,98855.19
2022-08-28T07:12:58.063Z,98846.09
2022-08-28T07:15:24.213Z,98852.69
2022-08-28T07:17:50.367Z,98856.81
2022-08-28T07:20:16.574Z,98866.06
2022-08-28T07:22:42.743Z,98870.88
2022-08-28T07:25:08.929Z,98856.31
2022-08-28T07:27:35.068Z,98872.44
2022-08-28T07:30:01.224Z,98866.66
2022-08-28T07:32:27.362Z,98867.09
2022-08-28T07:34:53.490Z,98867.97
2022-08-28T07:37:19.651Z,98861.56
2022-08-28T07:39:45.789Z,98864.47
2022-08-28T07:42:11.924Z,98868.88
2022-08-28T07:44:38.093Z,98866.59
2022-08-28T07:47:04.299Z,98866.38
2022-08-28T07:49:30.562Z,98873.41
2022-08-28T07:51:56.720Z,98866.81
2022-08-28T07:54:22.839Z,98878.34
2022-08-28T07:56:48.975Z,98877.72
2022-08-28T07:59:16.750Z,98883.72
2022-08-28T08:01:43.484Z,98880.84
2022-08-28T08:04:09.659Z,98883.53
2022-08-28T08:06:35.821Z,98890.75
2022-08-28T08:09:02.013Z,98885.78
2022-08-28T08:11:28.257Z,98898.19
2022-08-28T08:13:58.611Z,98890.97
2022-08-28T08:16:25.249Z,98893.69
2022-08-28T08:18:51.448Z,98896.81
2022-08-28T08:21:17.625Z,98898.09
2022-08-28T08:23:43.771Z,98902.59
2022-08-28T08:26:09.918Z,98891.31
2022-08-28T08:28:36.068Z,98895.25
2022-08-28T08:31:02.243Z,98900.03
2022-08-28T08:33:28.415Z,98898.38
2022-08-28T08:35:54.586Z,98890.50
2022-08-28T08:38:20.747Z,98898.78
2022-08-28T08:40:46.933Z,98896.94
2022-08-28T08:43:13.253Z,98895.06
2022-08-28T08:45:39.423Z,98901.84
2022-08-28T08:48:05.622Z,98901.06
2022-08-28T08:50:31.815Z,98891.56
2022-08-28T08:52:58.005Z,98899.22
2022-08-28T08:55:24.136Z,98896.53
2022-08-28T08:57:50.288Z,98904.56
2022-08-28T09:00:16.446Z,98904.97
2022-08-28T09:02:42.620Z,98906.38
2022-08-28T09:05:08.912Z,98905.38
2022-08-28T09:07:35.042Z,98904.97
2022-08-28T09:10:01.195Z,98901.81
2022-08-28T09:12:27.371Z,98897.66
2022-08-28T09:14:53.532Z,98899.66
2022-08-28T09:17:19.677Z,98903.31
2022-08-28T09:19:45.836Z,98895.28
2022-08-28T09:22:11.979Z,98907.28
2022-08-28T09:24:38.100Z,98905.50
2022-08-28T09:27:04.301Z,98916.97
2022-08-28T09:29:30.483Z,98911.75
2022-08-28T09:31:56.625Z,98911.91
2022-08-28T09:34:22.805Z,98921.56
2022-08-28T09:36:48.946Z,98913.63
2022-08-28T09:39:15.099Z,98913.78
2022-08-28T09:41:41.249Z,98911.84
2022-08-28T09:44:07.389Z,98924.31
2022-08-28T09:46:33.615Z,98926.19
2022-08-28T09:48:59.887Z,98917.19
2022-08-28T09:51:26.314Z,98926.41
2022-08-28T09:53:54.047Z,98929.94
2022-08-28T09:56:20.212Z,98921.06
2022-08-28T09:58:46.376Z,98924.72
2022-08-28T10:01:12.573Z,98929.59
2022-08-28T10:03:38.754Z,98927.66
2022-08-28T10:06:04.905Z,98920.69
2022-08-28T10:08:31.070Z,98919.75
2022-08-28T10:10:57.251Z,98908.50
2022-08-28T10:13:23.469Z,98919.44
2022-08-28T10:15:49.658Z,98912.97
2022-08-28T10:18:15.968Z,98918.50
2022-08-28T10:20:42.106Z,98917.25
2022-08-28T10:23:08.267Z,98917.47
2022-08-28T10:25:34.415Z,98912.84
2022-08-28T10:28:02.226Z,98910.06
2022-08-28T10:30:28.383Z,98921.19
2022-08-28T10:32:54.603Z,98918.34
2022-08-28T10:35:20.754Z,98908.88
2022-08-28T10:37:46.914Z,98922.91
2022-08-28T10:40:13.134Z,98922.38
2022-08-28T10:42:39.377Z,98919.31
2022-08-28T10:45:05.575Z,98920.81
2022-08-28T10:47:31.746Z,98914.25
2022-08-28T10:49:57.898Z,98917.84
2022-08-28T10:52:24.042Z,98912.09
2022-08-28T10:54:50.214Z,98926.28
2022-08-28T10:57:16.364Z,98930.44
2022-08-28T10:59:42.541Z,98921.72
2022-08-28T11:02:09.295Z,98919.50
2022-08-28T11:04:35.484Z,98919.69
2022-08-28T11:07:02.234Z,98911.75
2022-08-28T11:09:28.506Z,98911.47
2022-08-28T11:11:58.421Z,98916.00
2022-08-28T11:14:27.314Z,98925.38
2022-08-28T11:16:53.487Z,98917.41
2022-08-28T11:19:19.645Z,98926.19
2022-08-28T11:21:45.824Z,98937.97
2022-08-28T11:24:12.285Z,98927.28
2022-08-28T11:26:38.724Z,98930.69
2022-08-28T11:29:05.174Z,98918.06
2022-08-28T11:31:31.404Z,98913.72
2022-08-28T11:33:57.562Z,98911.81
2022-08-28T11:36:23.709Z,98924.06
2022-08-28T11:38:49.862Z,98926.72
2022-08-28T11:41:15.984Z,98927.00
2022-08-28T11:43:42.115Z,98915.16
2022-08-28T11:46:08.348Z,98908.38
2022-08-28T11:48:34.521Z,98915.13
2022-08-28T11:51:00.662Z,98909.63
2022-08-28T11:53:26.820Z,98915.91
2022-08-28T11:55:52.959Z,98913.44
2022-08-28T11:58:19.107Z,98918.28
2022-08-28T12:00:45.264Z,98918.16
2022-08-28T12:03:11.503Z,98928.94
2022-08-28T12:05:37.818Z,98920.81
2022-08-28T12:08:05.062Z,98916.88
2022-08-28T12:10:31.326Z,98916.88
2022-08-28T12:12:57.472Z,98905.31
2022-08-28T12:15:23.661Z,98910.16
2022-08-28T12:17:49.811Z,98918.44
2022-08-28T12:20:15.963Z,98913.06
2022-08-28T12:22:42.128Z,98918.97
2022-08-28T12:25:08.309Z,98918.63
2022-08-28T12:27:34.488Z,98916.81
2022-08-28T12:30:00.654Z,98916.34
2022-08-28T12:32:26.787Z,98917.47
2022-08-28T12:34:52.965Z,98915.53
2022-08-28T12:37:19.145Z,98912.84
2022-08-28T12:39:45.281Z,98900.31
2022-08-28T12:42:11.408Z,98898.16
2022-08-28T12:44:37.649Z,98906.66
2022-08-28T12:47:03.791Z,98918.34
2022-08-28T12:49:29.916Z,98903.03
2022-08-28T12:51:56.093Z,98922.84
2022-08-28T12:54:22.231Z,98905.31
2022-08-28T12:56:48.353Z,98898.09
2022-08-28T12:59:14.516Z,98900.47
2022-08-28T13:01:40.740Z,98913.66
2022-08-28T13:04:06.962Z,98907.66
2022-08-28T13:06:33.208Z,98904.22
2022-08-28T13:08:59.354Z,98913.91
2022-08-28T13:11:25.509Z,98906.44
2022-08-28T13:13:51.662Z,98899.63
2022-08-28T13:16:17.857Z,98898.97
2022-08-28T13:18:44.032Z,98892.03
2022-08-28T13:21:10.193Z,98894.81
2022-08-28T13:23:36.327Z,98890.88
2022-08-28T13:26:02.474Z,98884.91
2022-08-28T13:28:28.932Z,98883.13
2022-08-28T13:30:55.120Z,98877.38
2022-08-28T13:33:21.292Z,98873.75
2022-08-28T13:35:47.471Z,98887.16
2022-08-28T13:38:13.631Z,98878.50
2022-08-28T13:40:57.497Z,98879.34
2022-08-28T13:43:24.429Z,98892.00
2022-08-28T13:45:50.622Z,98882.59
2022-08-28T13:48:16.843Z,98878.63
2022-08-28T13:50:43.007Z,98877.78
2022-08-28T13:53:13.100Z,98865.69
2022-08-28T13:55:39.381Z,98879.59
2022-08-28T13:58:05.544Z,98874.13
2022-08-28T14:00:31.682Z,98870.75
2022-08-28T14:02:57.809Z,98864.44
2022-08-28T14:05:23.974Z,98861.38
2022-08-28T14:07:50.107Z,98857.03
2022-08-28T14:10:16.268Z,98853.91
2022-08-28T14:12:43.024Z,98854.25
2022-08-28T14:15:09.160Z,98856.47
2022-08-28T14:17:35.284Z,98849.91
2022-08-28T14:20:01.478Z,98850.97
2022-08-28T14:22:27.600Z,98842.38
2022-08-28T14:24:53.743Z,98842.00
2022-08-28T14:27:19.911Z,98843.66
2022-08-28T14:29:46.061Z,98846.91
2022-08-28T14:32:12.275Z,98845.56
2022-08-28T14:34:39.038Z,98846.38
2022-08-28T14:37:05.175Z,98850.00
2022-08-28T14:39:31.306Z,98856.78
2022-08-28T14:41:57.451Z,98851.09
2022-08-28T14:44:23.577Z,98846.22
2022-08-28T14:46:49.730Z,98854.78
2022-08-28T14:49:15.899Z,98858.41
2022-08-28T14:51:42.119Z,98861.19
2022-08-28T14:54:08.253Z,98860.72
2022-08-28T14:56:34.408Z,98857.75
2022-08-28T14:59:00.540Z,98848.91
2022-08-28T15:01:26.763Z,98835.31
2022-08-28T15:04:05.929Z,98840.22
2022-08-28T15:06:32.099Z,98846.78
2022-08-28T15:08:58.245Z,98841.69
2022-08-28T15:11:24.397Z,98846.94
2022-08-28T15:13:50.552Z,98849.13
2022-08-28T15:16:16.741Z,98842.34
2022-08-28T15:18:42.965Z,98849.53
2022-08-28T15:21:11.872Z,98850.66
2022-08-28T15:23:38.018Z,98850.78
2022-08-28T15:26:12.227Z,98855.13
2022-08-28T15:28:41.323Z,98856.50
2022-08-28T15:31:07.488Z,98850.47
2022-08-28T15:33:33.702Z,98849.88
2022-08-28T15:35:59.847Z,98850.38
2022-08-28T15:38:25.988Z,98839.31
2022-08-28T15:40:52.222Z,98858.16
2022-08-28T15:43:18.347Z,98838.75
2022-08-28T15:45:44.538Z,98844.28
2022-08-28T15:48:10.765Z,98848.44
2022-08-28T15:50:36.896Z,98848.72
2022-08-28T15:53:03.033Z,98849.81
2022-08-28T15:55:29.192Z,98853.66
2022-08-28T15:57:55.325Z,98849.97
2022-08-28T16:00:21.448Z,98849.44
2022-08-28T16:02:47.589Z,98848.19
2022-08-28T16:05:13.746Z,98851.50
2022-08-28T16:07:39.871Z,98842.72
2022-08-28T16:10:06.050Z,98845.53
2022-08-28T16:12:32.197Z,98839.81
2022-08-28T16:14:58.342Z,98846.03
2022-08-28T16:17:24.562Z,98842.94
2022-08-28T16:19:50.881Z,98851.06
2022-08-28T16:22:17.009Z,98857.63
2022-08-28T16:24:43.156Z,98848.09
2022-08-28T16:27:14.697Z,98831.75
2022-08-28T16:29:41.712Z,98852.63
2022-08-28T16:32:07.953Z,98844.56
2022-08-28T16:34:34.156Z,98845.78
2022-08-28T16:37:00.321Z,98834.06
2022-08-28T16:39:26.764Z,98852.63
2022-08-28T16:41:52.914Z,98839.75
2022-08-28T16:44:19.063Z,98842.84
2022-08-28T16:46:45.293Z,98828.03
2022-08-28T16:49:11.472Z,98828.63
2022-08-28T16:51:37.627Z,98835.78
2022-08-28T16:54:03.787Z,98821.25
2022-08-28T16:56:29.947Z,98831.78
2022-08-28T16:58:56.094Z,98838.25
2022-08-28T17:01:22.331Z,98826.66
2022-08-28T17:03:50.590Z,98829.81
2022-08-28T17:06:16.728Z,98827.41
2022-08-28T17:08:42.885Z,98835.84
2022-08-28T17:11:09.026Z,98833.13
2022-08-28T17:13:35.159Z,98836.94
2022-08-28T17:16:01.388Z,98824.06
2022-08-28T17:18:27.552Z,98834.66
2022-08-28T17:20:53.681Z,98826.03
2022-08-28T17:23:20.664Z,98829.69
2022-08-28T17:25:46.800Z,98841.22
2022-08-28T17:28:13.031Z,98843.66
2022-08-28T17:30:39.307Z,98831.00
2022-08-28T17:33:05.450Z,98832.19
2022-08-28T17:35:31.583Z,98831.97
2022-08-28T17:38:07.986Z,98831.00
2022-08-28T17:40:34.151Z,98844.28
2022-08-28T17:43:00.352Z,98833.03
2022-08-28T17:45:26.909Z,98844.59
2022-08-28T17:47:53.035Z,98836.28
2022-08-28T17:50:19.164Z,98844.56
2022-08-28T17:52:45.315Z,98839.78
2022-08-28T17:55:11.468Z,98841.59
2022-08-28T17:57:37.609Z,98849.97
2022-08-28T18:00:05.153Z,98851.81
2022-08-28T18:02:31.452Z,98851.31
2022-08-28T18:04:57.624Z,98852.00
2022-08-28T18:07:23.815Z,98851.19
2022-08-28T18:09:49.968Z,98865.91
2022-08-28T18:12:16.110Z,98857.13
2022-08-28T18:14:42.310Z,98855.47
2022-08-28T18:17:09.142Z,98857.91
2022-08-28T18:19:35.397Z,98868.66
2022-08-28T18:22:01.552Z,98869.38
2022-08-28T18:24:27.690Z,98867.72
2022-08-28T18:26:53.824Z,98858.56
2022-08-28T18:29:20.022Z,98866.28
2022-08-28T18:31:46.264Z,98865.00
2022-08-28T18:34:12.510Z,98870.00
2022-08-28T18:36:38.661Z,98877.00
2022-08-28T18:39:04.799Z,98881.84
2022-08-28T18:41:37.670Z,98873.28
2022-08-28T18:44:10.490Z,98872.81
2022-08-28T18:46:36.674Z,98874.78
2022-08-28T18:49:02.845Z,98879.22
2022-08-28T18:51:29.033Z,98882.81
2022-08-28T18:53:55.222Z,98887.91
2022-08-28T18:56:21.401Z,98887.69
2022-08-28T18:58:47.557Z,98884.78
2022-08-28T19:01:13.740Z,98896.44
2022-08-28T19:03:39.911Z,98891.34
2022-08-28T19:06:06.070Z,98897.84
2022-08-28T19:08:32.202Z,98898.88
2022-08-28T19:10:58.337Z,98898.31
2022-08-28T19:13:24.545Z,98904.34
2022-08-28T19:15:50.789Z,98902.94
2022-08-28T19:18:17.039Z,98920.50
2022-08-28T19:20:43.198Z,98918.13
2022-08-28T19:23:09.326Z,98923.22
2022-08-28T19:25:35.472Z,98928.63
2022-08-28T19:28:01.800Z,98925.13
2022-08-28T19:30:27.979Z,98923.06
2022-08-28T19:32:54.150Z,98926.91
2022-08-28T19:35:20.296Z,98930.47
2022-08-28T19:37:50.564Z,98929.84
2022-08-28T19:40:16.794Z,98929.28
2022-08-28T19:42:42.983Z,98938.44
2022-08-28T19:45:09.116Z,98932.06
2022-08-28T19:47:35.723Z,98937.19
2022-08-28T19:50:02.349Z,98937.44
2022-08-28T19:52:28.486Z,98943.09
2022-08-28T19:54:55.489Z,98938.97
2022-08-28T19:57:21.766Z,98949.06
2022-08-28T19:59:48.621Z,98948.88
2022-08-28T20:02:14.800Z,98953.81
2022-08-28T20:04:40.982Z,98947.41
2022-08-28T20:07:07.130Z,98947.00
2022-08-28T20:09:33.256Z,98951.38
2022-08-28T20:11:59.400Z,98953.84
2022-08-28T20:14:25.549Z,98955.53
2022-08-28T20:16:51.687Z,98967.50
2022-08-28T20:19:17.844Z,98966.25
2022-08-28T20:21:43.991Z,98974.50
2022-08-28T20:24:10.117Z,98973.69
2022-08-28T20:26:36.717Z,98960.88
2022-08-28T20:29:02.846Z,98966.66
2022-08-28T20:31:29.012Z,98970.38
2022-08-28T20:33:55.219Z,98972.03
2022-08-28T20:36:21.585Z,98974.69
2022-08-28T20:38:47.750Z,98976.34
2022-08-28T20:41:13.914Z,98980.69
2022-08-28T20:43:40.112Z,98980.47
2022-08-28T20:46:07.569Z,98980.88
2022-08-28T20:48:33.756Z,98984.59
2022-08-28T20:50:59.891Z,98981.13
2022-08-28T20:53:36.900Z,98984.16
2022-08-28T20:56:04.596Z,98980.03
2022-08-28T20:58:30.724Z,98982.06
2022-08-28T21:00:59.399Z,98991.13
2022-08-28T21:03:27.192Z,98994.66
2022-08-28T21:05:54.608Z,98998.72
2022-08-28T21:08:20.761Z,99003.28
2022-08-28T21:10:46.905Z,99004.47
2022-08-28T21:13:13.062Z,99010.69
2022-08-28T21:15:39.206Z,99004.06
2022-08-28T21:18:05.358Z,99006.13
2022-08-28T21:20:31.498Z,99002.38
2022-08-28T21:22:57.652Z,99004.25
2022-08-28T21:25:23.813Z,98993.31
2022-08-28T21:27:49.940Z,98986.28
2022-08-28T21:30:16.086Z,98987.06
2022-08-28T21:32:42.242Z,98989.56
2022-08-28T21:35:08.382Z,98990.16
2022-08-28T21:37:34.525Z,98997.16
2022-08-28T21:40:00.819Z,99007.25
2022-08-28T21:42:27.058Z,99004.38
2022-08-28T21:44:53.225Z,99005.16
2022-08-28T21:47:19.389Z,99013.56
2022-08-28T21:49:45.532Z,99012.50
2022-08-28T21:52:11.672Z,99019.91
2022-08-28T21:54:37.842Z,99016.00
2022-08-28T21:57:03.995Z,99023.59
2022-08-28T21:59:37.783Z,99026.88
2022-08-28T22:02:04.419Z,99019.69
2022-08-28T22:04:30.649Z,99020.28
2022-08-28T22:06:56.795Z,99014.88
2022-08-28T22:09:22.959Z,99018.97
2022-08-28T22:11:49.093Z,99020.63
2022-08-28T22:14:15.218Z,99024.72
2022-08-28T22:16:41.433Z,99020.53
2022-08-28T22:19:07.604Z,99023.53
2022-08-28T22:21:33.745Z,99023.31
2022-08-28T22:23:59.926Z,99020.00
2022-08-28T22:26:26.068Z,99017.50
2022-08-28T22:28:52.192Z,99017.50
2022-08-28T22:31:19.342Z,99016.22
2022-08-28T22:33:45.560Z,99018.97
2022-08-28T22:36:11.699Z,99019.97
2022-08-28T22:38:37.850Z,99023.28
2022-08-28T22:41:03.984Z,99021.22
2022-08-28T22:43:30.127Z,99023.06
2022-08-28T22:45:56.390Z,99018.88
2022-08-28T22:48:22.542Z,99023.03
2022-08-28T22:50:48.698Z,99022.56
2022-08-28T22:53:16.114Z,99020.78
2022-08-28T22:55:43.533Z,99030.66
2022-08-28T22:58:09.778Z,99023.56
2022-08-28T23:00:36.003Z,99018.66
2022-08-28T23:03:02.223Z,99017.78
2022-08-28T23:05:28.404Z,99022.38
2022-08-28T23:07:54.554Z,99014.16
2022-08-28T23:10:32.112Z,99012.69
2022-08-28T23:13:06.855Z,99018.13
2022-08-28T23:15:33.003Z,99007.09
2022-08-28T23:17:59.129Z,98997.34
2022-08-28T23:20:27.596Z,99002.41
2022-08-28T23:22:58.117Z,99003.09
2022-08-28T23:25:24.441Z,99003.78
2022-08-28T23:27:50.590Z,98998.09
2022-08-28T23:30:16.731Z,98995.97
2022-08-28T23:32:42.882Z,98982.84
2022-08-28T23:35:09.378Z,98990.16
2022-08-28T23:37:35.509Z,98986.53
2022-08-28T23:40:01.696Z,98984.13
2022-08-28T23:42:27.887Z,98981.66
2022-08-28T23:44:55.306Z,98976.13
2022-08-28T23:47:21.456Z,98974.78
2022-08-28T23:49:47.621Z,98974.50
2022-08-28T23:52:13.787Z,98970.72
2022-08-28T23:54:39.963Z,98970.38
2022-08-28T23:57:07.313Z,98980.69
2022-08-28T23:59:33.469Z,98973.06
